Time;durP1;ratioP1;P1;durP2;ratioP2;P2;SDS_P1;SDS_P2;PMS_P1;PMS_P2;Temp;Humidity;BMP_temperature;BMP_pressure;BME280_temperature;BME280_humidity;BME280_pressure;Samples;Min_cycle;Max_cycle;Signal;HPM_P1;HPM_P2
2022/03/24 00:00:05;;;;;;;;;;;7.00;99.90;;;;;;5074620;28;19929;-60
2022/03/24 00:02:38;;;;;;;;;;;6.90;99.90;;;;;;5096157;28;19969;-60
2022/03/24 00:05:04;;;;;;;;;;;6.90;99.90;;;;;;5113234;28;19924;-60
2022/03/24 00:07:29;;;;;;;;;;;6.90;99.90;;;;;;5113339;28;20019;-60
2022/03/24 00:09:55;;;;;;;;;;;6.90;99.90;;;;;;5103290;28;20297;-60
2022/03/24 00:12:22;;;;;;;;;;;6.90;99.90;;;;;;5092950;28;20052;-60
2022/03/24 00:14:48;;;;;;;;;;;7.00;99.90;;;;;;5093967;28;19928;-60
2022/03/24 00:17:13;;;;;;;;;;;7.00;99.90;;;;;;5111820;27;19947;-60
2022/03/24 00:19:39;;;;;;;;;;;7.00;99.90;;;;;;5091408;28;20323;-60
2022/03/24 00:22:05;;;;;;;;;;;7.00;99.90;;;;;;5093638;28;19920;-60
2022/03/24 00:24:30;;;;;;;;;;;7.00;99.90;;;;;;5091643;28;19975;-60
2022/03/24 00:26:56;;;;;;;;;;;7.00;99.90;;;;;;5092083;28;19924;-60
2022/03/24 00:29:22;;;;;;;;;;;7.00;99.90;;;;;;5093831;28;19927;-60
2022/03/24 00:31:47;;;;;;;;;;;7.10;99.90;;;;;;5074708;28;19935;-60
2022/03/24 00:34:13;;;;;;;;;;;7.00;99.90;;;;;;5093178;28;19924;-60
2022/03/24 00:36:39;;;;;;;;;;;7.00;99.90;;;;;;5093215;28;19926;-60
2022/03/24 00:39:05;;;;;;;;;;;6.90;99.90;;;;;;5091839;28;20397;-60
2022/03/24 00:41:30;;;;;;;;;;;6.80;99.90;;;;;;5093396;28;19920;-60
2022/03/24 00:43:56;;;;;;;;;;;6.80;99.90;;;;;;5092221;28;19932;-60
2022/03/24 00:46:22;;;;;;;;;;;6.70;99.90;;;;;;5092318;28;19934;-60
2022/03/24 00:48:49;;;;;;;;;;;6.80;99.90;;;;;;5093246;28;19926;-60
2022/03/24 00:51:15;;;;;;;;;;;6.80;99.90;;;;;;5091863;28;19977;-60
2022/03/24 00:53:43;;;;;;;;;;;6.80;99.90;;;;;;5078509;28;20382;-60
2022/03/24 00:56:10;;;;;;;;;;;6.80;99.90;;;;;;5091925;28;19920;-60
2022/03/24 00:58:36;;;;;;;;;;;6.70;99.90;;;;;;5091607;28;19928;-60
2022/03/24 01:01:04;;;;;;;;;;;6.70;99.90;;;;;;5092695;28;20290;-60
2022/03/24 01:03:30;;;;;;;;;;;6.60;99.90;;;;;;5104413;28;19930;-60
2022/03/24 01:05:56;;;;;;;;;;;6.60;99.90;;;;;;5112305;28;19927;-60
2022/03/24 01:08:22;;;;;;;;;;;6.50;99.90;;;;;;5112737;28;19967;-60
2022/03/24 01:10:48;;;;;;;;;;;6.40;99.90;;;;;;5111848;28;19924;-60
2022/03/24 01:13:15;;;;;;;;;;;6.40;99.90;;;;;;5092654;28;19924;-60
2022/03/24 01:15:44;;;;;;;;;;;6.40;99.90;;;;;;5089891;28;20359;-59
2022/03/24 01:18:10;;;;;;;;;;;6.40;99.90;;;;;;5075577;28;19925;-60
2022/03/24 01:20:37;;;;;;;;;;;6.40;99.90;;;;;;5084750;28;19928;-60
2022/03/24 01:23:02;;;;;;;;;;;6.30;99.90;;;;;;5095570;28;19967;-59
2022/03/24 01:25:28;;;;;;;;;;;6.30;99.90;;;;;;5097223;28;19990;-60
2022/03/24 01:27:54;;;;;;;;;;;6.20;99.90;;;;;;5094848;28;19931;-60
2022/03/24 01:30:21;;;;;;;;;;;6.20;99.90;;;;;;5095776;28;19924;-60
2022/03/24 01:32:46;;;;;;;;;;;6.20;99.90;;;;;;5095521;28;20305;-60
2022/03/24 01:35:13;;;;;;;;;;;6.20;99.90;;;;;;5094935;28;19935;-60
2022/03/24 01:37:40;;;;;;;;;;;6.10;99.90;;;;;;5095223;28;19982;-60
2022/03/24 01:40:07;;;;;;;;;;;6.10;99.90;;;;;;5078648;28;19924;-60
2022/03/24 01:42:34;;;;;;;;;;;6.10;99.90;;;;;;5094781;28;19924;-60
2022/03/24 01:45:00;;;;;;;;;;;6.10;99.90;;;;;;5095781;28;19924;-59
2022/03/24 01:47:27;;;;;;;;;;;6.20;99.90;;;;;;5095341;28;20303;-60
2022/03/24 01:49:58;;;;;;;;;;;6.10;99.90;;;;;;5095777;28;19930;-59
2022/03/24 01:52:25;;;;;;;;;;;6.10;99.90;;;;;;5087349;28;19986;-60
2022/03/24 01:54:54;;;;;;;;;;;6.10;99.90;;;;;;5075469;28;19970;-59
2022/03/24 01:57:21;;;;;;;;;;;6.00;99.90;;;;;;5093045;28;19946;-59
2022/03/24 01:59:48;;;;;;;;;;;6.00;99.90;;;;;;5095498;28;20274;-60
2022/03/24 02:02:15;;;;;;;;;;;6.00;99.90;;;;;;5112974;28;19928;-59
2022/03/24 02:04:43;;;;;;;;;;;6.00;99.90;;;;;;5107086;28;19928;-60
2022/03/24 02:07:10;;;;;;;;;;;6.00;99.90;;;;;;5112432;28;19931;-60
2022/03/24 02:09:38;;;;;;;;;;;6.00;99.90;;;;;;5094218;28;20393;-60
2022/03/24 02:12:04;;;;;;;;;;;6.00;99.90;;;;;;5093830;28;19931;-59
2022/03/24 02:14:30;;;;;;;;;;;6.00;99.90;;;;;;5093150;28;19929;-59
2022/03/24 02:16:57;;;;;;;;;;;5.90;99.90;;;;;;5060452;28;20390;-60
2022/03/24 02:19:24;;;;;;;;;;;5.80;99.90;;;;;;5073498;28;19966;-60
2022/03/24 02:21:51;;;;;;;;;;;5.70;99.90;;;;;;5075690;28;20019;-59
2022/03/24 02:24:17;;;;;;;;;;;5.60;99.90;;;;;;5094639;28;19935;-59
2022/03/24 02:26:44;;;;;;;;;;;5.40;99.90;;;;;;5094393;28;20054;-60
2022/03/24 02:29:11;;;;;;;;;;;5.30;99.90;;;;;;5093206;28;19924;-59
2022/03/24 02:31:38;;;;;;;;;;;5.20;99.90;;;;;;5093964;28;19924;-60
2022/03/24 02:36:49;;;;;;;;;;;5.10;99.90;;;;;;5093291;28;20011;-59
2022/03/24 02:39:15;;;;;;;;;;;5.10;99.90;;;;;;5092564;28;20353;-59
2022/03/24 02:41:49;;;;;;;;;;;5.00;99.90;;;;;;5093943;28;19931;-59
2022/03/24 02:44:14;;;;;;;;;;;5.00;99.90;;;;;;5094692;28;19931;-60
2022/03/24 02:46:42;;;;;;;;;;;5.00;99.90;;;;;;5094001;28;19924;-59
2022/03/24 02:49:08;;;;;;;;;;;5.00;99.90;;;;;;5093789;28;19970;-59
2022/03/24 02:51:34;;;;;;;;;;;5.00;99.90;;;;;;5093393;28;19924;-59
2022/03/24 02:54:00;;;;;;;;;;;5.00;99.90;;;;;;5073241;28;20042;-59
2022/03/24 02:56:25;;;;;;;;;;;5.00;99.90;;;;;;5072721;28;19932;-59
2022/03/24 02:58:51;;;;;;;;;;;5.10;99.90;;;;;;5089740;28;19935;-59
2022/03/24 03:01:18;;;;;;;;;;;5.20;99.90;;;;;;5092535;28;19990;-59
2022/03/24 03:03:43;;;;;;;;;;;5.10;99.90;;;;;;5107112;28;19931;-60
2022/03/24 03:06:11;;;;;;;;;;;5.20;99.90;;;;;;5109805;28;19932;-59
2022/03/24 03:08:36;;;;;;;;;;;5.20;99.90;;;;;;5032286;28;1749887;-60
2022/03/24 03:11:02;;;;;;;;;;;5.30;99.90;;;;;;5094875;28;19924;-59
2022/03/24 03:13:27;;;;;;;;;;;5.20;99.90;;;;;;5094104;28;19966;-59
2022/03/24 03:15:53;;;;;;;;;;;5.30;99.90;;;;;;5088044;28;19925;-59
2022/03/24 03:18:19;;;;;;;;;;;5.20;99.90;;;;;;5074467;28;20050;-59
2022/03/24 03:20:45;;;;;;;;;;;5.20;99.90;;;;;;5074264;28;19924;-59
2022/03/24 03:23:11;;;;;;;;;;;5.20;99.90;;;;;;5073243;28;19967;-60
2022/03/24 03:25:36;;;;;;;;;;;5.20;99.90;;;;;;5091733;28;20300;-59
2022/03/24 03:28:02;;;;;;;;;;;5.10;99.90;;;;;;5094131;28;20335;-59
2022/03/24 03:30:28;;;;;;;;;;;5.10;99.90;;;;;;5093531;28;19924;-59
2022/03/24 03:32:54;;;;;;;;;;;5.00;99.90;;;;;;5092644;28;19931;-60
2022/03/24 03:35:20;;;;;;;;;;;5.00;99.90;;;;;;5093879;28;20281;-59
2022/03/24 03:37:45;;;;;;;;;;;5.00;99.90;;;;;;5075563;28;19973;-59
2022/03/24 03:40:11;;;;;;;;;;;4.90;99.90;;;;;;5094791;28;19932;-59
2022/03/24 03:42:37;;;;;;;;;;;5.00;99.90;;;;;;5093601;28;20292;-59
2022/03/24 03:45:03;;;;;;;;;;;4.90;99.90;;;;;;5094818;28;20289;-59
2022/03/24 03:47:29;;;;;;;;;;;4.90;99.90;;;;;;5094252;28;19971;-59
2022/03/24 03:49:55;;;;;;;;;;;5.00;99.90;;;;;;5093595;28;20389;-59
2022/03/24 03:52:21;;;;;;;;;;;4.90;99.90;;;;;;5086368;28;20335;-59
2022/03/24 03:54:47;;;;;;;;;;;4.90;99.90;;;;;;5072320;28;19978;-59
2022/03/24 03:57:13;;;;;;;;;;;5.00;99.90;;;;;;5072025;28;20011;-59
2022/03/24 03:59:39;;;;;;;;;;;4.90;99.90;;;;;;5080063;28;19999;-59
2022/03/24 04:02:05;;;;;;;;;;;4.90;99.90;;;;;;5094041;28;19930;-59
2022/03/24 04:04:31;;;;;;;;;;;5.00;99.90;;;;;;5112884;28;20382;-59
2022/03/24 04:06:56;;;;;;;;;;;5.00;99.90;;;;;;5113348;28;19923;-59
2022/03/24 04:09:22;;;;;;;;;;;5.00;99.90;;;;;;5099735;28;19971;-59
2022/03/24 04:11:48;;;;;;;;;;;5.00;99.90;;;;;;5093318;28;19927;-59
2022/03/24 04:14:14;;;;;;;;;;;5.00;99.90;;;;;;5093819;28;19970;-59
2022/03/24 04:16:40;;;;;;;;;;;5.10;99.90;;;;;;5079941;28;19931;-59
2022/03/24 04:19:07;;;;;;;;;;;5.10;99.90;;;;;;5094047;28;19923;-59
2022/03/24 04:21:33;;;;;;;;;;;5.10;99.90;;;;;;5093702;28;20268;-59
2022/03/24 04:23:58;;;;;;;;;;;5.10;99.90;;;;;;5092957;28;19932;-59
2022/03/24 04:26:24;;;;;;;;;;;5.10;99.90;;;;;;5093478;28;19928;-59
2022/03/24 04:28:51;;;;;;;;;;;5.00;99.90;;;;;;5093710;28;20400;-59
2022/03/24 04:31:16;;;;;;;;;;;5.00;99.90;;;;;;5092583;28;19924;-59
2022/03/24 04:33:42;;;;;;;;;;;4.90;99.90;;;;;;5093762;28;20322;-59
2022/03/24 04:36:08;;;;;;;;;;;4.80;99.90;;;;;;5093370;28;20044;-59
2022/03/24 04:38:35;;;;;;;;;;;4.80;99.90;;;;;;5092539;28;19928;-59
2022/03/24 04:41:01;;;;;;;;;;;4.80;99.90;;;;;;5093609;28;19924;-59
2022/03/24 04:43:26;;;;;;;;;;;4.70;99.90;;;;;;5093438;28;20372;-59
2022/03/24 04:45:52;;;;;;;;;;;4.70;99.90;;;;;;5092504;28;20099;-59
2022/03/24 04:48:18;;;;;;;;;;;4.60;99.90;;;;;;5092265;28;19935;-59
2022/03/24 04:50:44;;;;;;;;;;;4.60;99.90;;;;;;5093278;28;19920;-59
2022/03/24 04:53:14;;;;;;;;;;;4.70;99.90;;;;;;5086035;28;19969;-59
2022/03/24 04:55:40;;;;;;;;;;;4.60;99.90;;;;;;5093558;28;19931;-59
2022/03/24 04:58:06;;;;;;;;;;;4.60;99.90;;;;;;5093381;28;19924;-59
2022/03/24 05:00:32;;;;;;;;;;;4.50;99.90;;;;;;5092455;28;19928;-59
2022/03/24 05:02:59;;;;;;;;;;;4.50;99.90;;;;;;5099652;28;19927;-59
2022/03/24 05:05:24;;;;;;;;;;;4.50;99.90;;;;;;5113484;28;20395;-59
2022/03/24 05:07:50;;;;;;;;;;;4.50;99.90;;;;;;5112843;28;19924;-59
2022/03/24 05:10:16;;;;;;;;;;;4.50;99.90;;;;;;5107705;28;20453;-59
2022/03/24 05:12:42;;;;;;;;;;;4.40;99.90;;;;;;5093045;28;20014;-59
2022/03/24 05:15:09;;;;;;;;;;;4.40;99.90;;;;;;5091821;28;19973;-59
2022/03/24 05:17:35;;;;;;;;;;;4.30;99.90;;;;;;5072300;28;19955;-59
2022/03/24 05:20:01;;;;;;;;;;;4.30;99.90;;;;;;5083391;28;20336;-59
2022/03/24 05:22:27;;;;;;;;;;;4.30;99.90;;;;;;5093177;28;19955;-59
2022/03/24 05:24:52;;;;;;;;;;;4.20;99.90;;;;;;5093026;28;19969;-59
2022/03/24 05:27:18;;;;;;;;;;;4.20;99.90;;;;;;5092415;28;19966;-59
2022/03/24 05:29:44;;;;;;;;;;;4.20;99.90;;;;;;5091557;28;19979;-59
2022/03/24 05:32:09;;;;;;;;;;;4.20;99.90;;;;;;5091260;28;20424;-59
2022/03/24 05:34:35;;;;;;;;;;;4.20;99.90;;;;;;5092166;28;20007;-59
2022/03/24 05:37:02;;;;;;;;;;;4.20;99.90;;;;;;5092736;28;19928;-59
2022/03/24 05:39:28;;;;;;;;;;;4.20;99.90;;;;;;5092887;28;19925;-59
2022/03/24 05:41:54;;;;;;;;;;;4.20;99.90;;;;;;5092118;28;20354;-59
2022/03/24 05:44:19;;;;;;;;;;;4.10;99.90;;;;;;5092876;28;19931;-59
2022/03/24 05:46:46;;;;;;;;;;;4.10;99.90;;;;;;5092363;28;20003;-59
2022/03/24 05:49:14;;;;;;;;;;;4.10;99.90;;;;;;5090429;28;20390;-59
2022/03/24 05:52:12;;;;;;;;;;;4.10;99.90;;;;;;5085169;28;19928;-59
2022/03/24 05:54:37;;;;;;;;;;;4.20;99.90;;;;;;5078386;28;20065;-59
2022/03/24 05:57:03;;;;;;;;;;;4.20;99.90;;;;;;5090480;28;19925;-59
2022/03/24 05:59:29;;;;;;;;;;;4.30;99.90;;;;;;5092326;28;19924;-59
2022/03/24 06:01:55;;;;;;;;;;;4.30;99.90;;;;;;5093649;28;19930;-59
2022/03/24 06:04:21;;;;;;;;;;;4.40;99.90;;;;;;5099973;28;19974;-59
2022/03/24 06:06:48;;;;;;;;;;;4.40;99.90;;;;;;5096545;28;19931;-59
2022/03/24 06:09:14;;;;;;;;;;;4.40;99.90;;;;;;5095062;28;19962;-59
2022/03/24 06:11:39;;;;;;;;;;;4.40;99.90;;;;;;5095699;28;19924;-59
2022/03/24 06:14:12;;;;;;;;;;;4.50;99.90;;;;;;5096248;28;19924;-59
2022/03/24 06:16:39;;;;;;;;;;;4.50;99.90;;;;;;5081756;28;20414;-59
2022/03/24 06:19:05;;;;;;;;;;;4.50;99.90;;;;;;5075983;28;19951;-59
2022/03/24 06:21:30;;;;;;;;;;;4.50;99.90;;;;;;5084780;28;20333;-59
2022/03/24 06:23:56;;;;;;;;;;;4.50;99.90;;;;;;5094983;28;19924;-59
2022/03/24 06:26:23;;;;;;;;;;;4.60;99.90;;;;;;5095903;28;19928;-59
2022/03/24 06:28:49;;;;;;;;;;;4.80;99.90;;;;;;5095917;28;20294;-59
2022/03/24 06:31:15;;;;;;;;;;;4.90;99.90;;;;;;5094548;28;20339;-59
2022/03/24 06:33:41;;;;;;;;;;;5.00;99.90;;;;;;5095680;28;20434;-59
2022/03/24 06:36:08;;;;;;;;;;;5.10;99.90;;;;;;5095919;28;19924;-59
2022/03/24 06:38:34;;;;;;;;;;;5.20;99.90;;;;;;5094253;28;19924;-59
2022/03/24 06:41:00;;;;;;;;;;;5.30;99.90;;;;;;5077381;28;19930;-59
2022/03/24 06:43:25;;;;;;;;;;;5.40;99.90;;;;;;5095719;28;20024;-59
2022/03/24 06:45:51;;;;;;;;;;;5.50;99.90;;;;;;5093167;28;19928;-59
2022/03/24 06:48:17;;;;;;;;;;;5.60;99.90;;;;;;5093634;28;19924;-59
2022/03/24 06:50:42;;;;;;;;;;;5.70;99.90;;;;;;5095800;28;19924;-59
2022/03/24 06:53:08;;;;;;;;;;;5.80;99.90;;;;;;5094562;28;19974;-59
2022/03/24 06:55:34;;;;;;;;;;;5.90;99.90;;;;;;5095380;28;19924;-59
2022/03/24 06:58:00;;;;;;;;;;;6.10;99.90;;;;;;5094929;28;19924;-59
2022/03/24 07:00:26;;;;;;;;;;;6.20;99.90;;;;;;5094385;28;20423;-59
2022/03/24 07:02:52;;;;;;;;;;;6.40;99.90;;;;;;5101079;28;19928;-59
2022/03/24 07:05:17;;;;;;;;;;;6.60;99.90;;;;;;5109911;28;20405;-59
2022/03/24 07:07:44;;;;;;;;;;;6.80;99.90;;;;;;5094982;28;19925;-59
2022/03/24 07:10:10;;;;;;;;;;;6.90;99.90;;;;;;5094429;28;20439;-59
2022/03/24 07:12:36;;;;;;;;;;;7.10;99.90;;;;;;5093126;28;19932;-59
2022/03/24 07:15:02;;;;;;;;;;;7.20;99.90;;;;;;5094578;28;19928;-59
2022/03/24 07:17:28;;;;;;;;;;;7.40;99.90;;;;;;5075069;28;20484;-59
2022/03/24 07:19:53;;;;;;;;;;;7.50;99.90;;;;;;5072943;28;20358;-59
2022/03/24 07:22:20;;;;;;;;;;;7.80;99.90;;;;;;5074365;28;19928;-59
2022/03/24 07:24:46;;;;;;;;;;;7.90;99.90;;;;;;5091022;28;19925;-59
2022/03/24 07:27:14;;;;;;;;;;;8.20;99.90;;;;;;5079508;28;19928;-59
2022/03/24 07:29:40;;;;;;;;;;;8.30;99.90;;;;;;5074203;28;20041;-60
2022/03/24 07:32:07;;;;;;;;;;;8.40;99.90;;;;;;5081560;28;19961;-60
2022/03/24 07:34:34;;;;;;;;;;;8.60;99.90;;;;;;5093901;28;19950;-59
2022/03/24 07:36:59;;;;;;;;;;;8.80;99.90;;;;;;5094110;28;20373;-60
2022/03/24 07:39:25;;;;;;;;;;;9.00;99.90;;;;;;5094389;28;19924;-59
2022/03/24 07:41:50;;;;;;;;;;;9.10;99.90;;;;;;5092057;28;19975;-59
2022/03/24 07:44:16;;;;;;;;;;;9.30;99.90;;;;;;5094393;28;19931;-60
2022/03/24 07:46:42;;;;;;;;;;;9.40;99.90;;;;;;5094463;28;19928;-60
2022/03/24 07:49:07;;;;;;;;;;;9.60;99.90;;;;;;5092970;28;19930;-60
2022/03/24 07:51:34;;;;;;;;;;;9.70;99.90;;;;;;5081310;28;19924;-59
2022/03/24 07:54:02;;;;;;;;;;;9.80;99.90;;;;;;5080854;28;19924;-59
2022/03/24 07:56:28;;;;;;;;;;;9.90;99.90;;;;;;5090693;28;20423;-59
2022/03/24 07:58:54;;;;;;;;;;;10.00;99.90;;;;;;5086087;28;19931;-59
2022/03/24 08:01:24;;;;;;;;;;;10.10;99.90;;;;;;5073736;28;20234;-59
2022/03/24 08:03:51;;;;;;;;;;;10.30;99.90;;;;;;5093536;28;19921;-59
2022/03/24 08:06:17;;;;;;;;;;;10.50;99.90;;;;;;5091547;28;20409;-60
2022/03/24 08:08:42;;;;;;;;;;;10.60;99.90;;;;;;5090616;28;19920;-59
2022/03/24 08:11:08;;;;;;;;;;;10.80;99.90;;;;;;5096932;28;19924;-59
2022/03/24 08:13:33;;;;;;;;;;;10.90;99.90;;;;;;5084651;28;20015;-59
2022/03/24 08:15:59;;;;;;;;;;;12.10;99.90;;;;;;5084688;28;20089;-59
2022/03/24 08:18:25;;;;;;;;;;;11.40;99.90;;;;;;5093447;28;19925;-59
2022/03/24 08:20:52;;;;;;;;;;;11.50;99.90;;;;;;5085967;28;20401;-59
2022/03/24 08:23:17;;;;;;;;;;;11.50;99.90;;;;;;5102924;28;19924;-59
2022/03/24 08:25:44;;;;;;;;;;;11.60;99.90;;;;;;5092911;28;19924;-59
2022/03/24 08:28:10;;;;;;;;;;;11.70;99.90;;;;;;5102088;28;19977;-59
2022/03/24 08:30:37;;;;;;;;;;;11.90;99.90;;;;;;5073992;28;20072;-59
2022/03/24 08:33:02;;;;;;;;;;;12.00;99.90;;;;;;5079218;28;19971;-59
2022/03/24 08:35:28;;;;;;;;;;;12.60;99.90;;;;;;5089224;28;19962;-59
2022/03/24 08:37:55;;;;;;;;;;;12.30;99.90;;;;;;5082279;28;20453;-59
2022/03/24 08:40:21;;;;;;;;;;;12.50;99.90;;;;;;5109500;28;20498;-59
2022/03/24 08:42:47;;;;;;;;;;;12.30;99.90;;;;;;5103936;28;19928;-59
2022/03/24 08:45:13;;;;;;;;;;;12.40;99.90;;;;;;5092459;28;19924;-59
2022/03/24 08:47:40;;;;;;;;;;;12.50;99.90;;;;;;5086894;28;19932;-60
2022/03/24 08:50:06;;;;;;;;;;;12.70;99.90;;;;;;5093089;28;19924;-59
2022/03/24 08:52:32;;;;;;;;;;;12.80;99.90;;;;;;5092008;28;19932;-60
2022/03/24 08:54:58;;;;;;;;;;;12.90;99.90;;;;;;5092481;28;20069;-59
2022/03/24 08:57:26;;;;;;;;;;;12.90;99.90;;;;;;5079118;28;20405;-59
2022/03/24 08:59:52;;;;;;;;;;;13.00;99.90;;;;;;5079833;28;19928;-59
2022/03/24 09:02:18;;;;;;;;;;;13.00;99.90;;;;;;5081734;28;19933;-59
2022/03/24 09:04:44;;;;;;;;;;;13.10;99.90;;;;;;5089642;28;19925;-59
2022/03/24 09:07:10;;;;;;;;;;;13.30;99.90;;;;;;5092203;28;20263;-59
2022/03/24 09:09:35;;;;;;;;;;;13.40;99.90;;;;;;5087134;28;19952;-59
2022/03/24 09:12:01;;;;;;;;;;;13.50;99.90;;;;;;5081700;28;19928;-59
2022/03/24 09:14:27;;;;;;;;;;;13.60;99.90;;;;;;5078190;28;20397;-59
2022/03/24 09:16:52;;;;;;;;;;;13.70;99.90;;;;;;5093042;28;20438;-60
2022/03/24 09:19:18;;;;;;;;;;;13.70;99.90;;;;;;5091858;28;19935;-59
2022/03/24 09:21:44;;;;;;;;;;;13.80;99.90;;;;;;5092237;28;19939;-60
2022/03/24 09:24:09;;;;;;;;;;;13.80;99.90;;;;;;5080195;28;20290;-60
2022/03/24 09:26:37;;;;;;;;;;;13.90;99.90;;;;;;5078614;28;19932;-59
2022/03/24 09:29:03;;;;;;;;;;;14.10;99.90;;;;;;5072858;28;19932;-59
2022/03/24 09:31:29;;;;;;;;;;;14.30;99.90;;;;;;5082801;28;19924;-59
2022/03/24 09:33:54;;;;;;;;;;;14.40;99.90;;;;;;5076521;28;19967;-59
2022/03/24 09:36:20;;;;;;;;;;;14.60;99.90;;;;;;5074618;28;19925;-59
2022/03/24 09:38:46;;;;;;;;;;;14.80;99.90;;;;;;5076483;28;20464;-60
2022/03/24 09:41:12;;;;;;;;;;;14.90;99.90;;;;;;5093315;28;19928;-60
2022/03/24 09:43:38;;;;;;;;;;;15.00;99.90;;;;;;5096717;28;19920;-60
2022/03/24 09:46:04;;;;;;;;;;;15.10;99.90;;;;;;5096891;28;19966;-60
2022/03/24 09:48:29;;;;;;;;;;;15.10;99.90;;;;;;5095915;28;20011;-60
2022/03/24 09:50:55;;;;;;;;;;;15.20;99.90;;;;;;5096245;28;19959;-60
2022/03/24 09:53:21;;;;;;;;;;;15.30;99.90;;;;;;5096817;28;19938;-59
2022/03/24 09:55:47;;;;;;;;;;;15.50;99.90;;;;;;5095888;28;19927;-60
2022/03/24 09:58:13;;;;;;;;;;;15.70;99.80;;;;;;5094043;28;20416;-60
2022/03/24 10:00:38;;;;;;;;;;;15.60;99.40;;;;;;5096376;28;20389;-60
2022/03/24 10:03:12;;;;;;;;;;;15.60;99.90;;;;;;5094679;28;19982;-60
2022/03/24 10:05:53;;;;;;;;;;;15.80;99.70;;;;;;5088160;28;19924;-60
2022/03/24 10:08:18;;;;;;;;;;;16.10;99.90;;;;;;5085117;28;20393;-60
2022/03/24 10:10:44;;;;;;;;;;;16.20;99.90;;;;;;5091430;28;19978;-60
2022/03/24 10:13:10;;;;;;;;;;;16.40;99.80;;;;;;5116406;28;20010;-60
2022/03/24 10:15:37;;;;;;;;;;;16.60;99.30;;;;;;5102861;28;19924;-60
2022/03/24 10:18:03;;;;;;;;;;;16.60;98.00;;;;;;5085526;28;19932;-60
2022/03/24 10:20:29;;;;;;;;;;;16.90;94.30;;;;;;5087354;28;19924;-60
2022/03/24 10:22:56;;;;;;;;;;;17.20;92.10;;;;;;5084792;28;20391;-60
2022/03/24 10:25:23;;;;;;;;;;;18.00;89.80;;;;;;5091019;28;19928;-60
2022/03/24 10:27:50;;;;;;;;;;;18.80;87.00;;;;;;5088556;28;20007;-60
2022/03/24 10:30:15;;;;;;;;;;;19.60;72.20;;;;;;5084266;28;19972;-60
2022/03/24 10:32:53;;;;;;;;;;;20.30;65.50;;;;;;5092167;28;19962;-60
2022/03/24 10:35:18;;;;;;;;;;;20.90;66.40;;;;;;5075904;28;20443;-60
2022/03/24 10:37:48;;;;;;;;;;;21.70;66.40;;;;;;5085805;28;19925;-60
2022/03/24 10:40:14;;;;;;;;;;;22.20;61.40;;;;;;5094407;28;19924;-60
2022/03/24 10:42:40;;;;;;;;;;;22.70;61.10;;;;;;5095245;28;19920;-60
2022/03/24 10:45:09;;;;;;;;;;;22.80;57.40;;;;;;5093838;28;19932;-60
2022/03/24 10:47:42;;;;;;;;;;;22.60;52.50;;;;;;5093709;28;19935;-60
2022/03/24 10:50:24;;;;;;;;;;;22.90;50.90;;;;;;5084496;28;20370;-60
2022/03/24 10:52:53;;;;;;;;;;;23.30;52.20;;;;;;5088772;28;19928;-60
2022/03/24 10:55:38;;;;;;;;;;;23.50;52.40;;;;;;5090716;28;19920;-60
2022/03/24 10:58:04;;;;;;;;;;;23.50;52.00;;;;;;5087996;28;19930;-60
2022/03/24 11:00:31;;;;;;;;;;;23.50;51.30;;;;;;5094807;28;19929;-60
2022/03/24 11:02:56;;;;;;;;;;;23.70;50.80;;;;;;5094780;28;19975;-61
2022/03/24 11:05:22;;;;;;;;;;;23.50;48.90;;;;;;5094585;28;19956;-60
2022/03/24 11:07:52;;;;;;;;;;;23.80;49.40;;;;;;5093508;28;20390;-60
2022/03/24 11:10:18;;;;;;;;;;;23.80;48.40;;;;;;5095816;28;19955;-60
2022/03/24 11:12:43;;;;;;;;;;;23.80;45.90;;;;;;5114972;28;19974;-60
2022/03/24 11:15:10;;;;;;;;;;;24.20;47.10;;;;;;5111186;28;20291;-60
2022/03/24 11:17:37;;;;;;;;;;;24.40;46.50;;;;;;5081084;28;19928;-60
2022/03/24 11:20:08;;;;;;;;;;;24.90;45.50;;;;;;5072664;28;19924;-61
2022/03/24 11:22:37;;;;;;;;;;;25.20;45.20;;;;;;5074812;28;19920;-60
2022/03/24 11:25:03;;;;;;;;;;;25.20;45.50;;;;;;5080985;28;19950;-60
2022/03/24 11:27:29;;;;;;;;;;;25.80;45.00;;;;;;5084915;28;19985;-61
2022/03/24 11:29:55;;;;;;;;;;;25.80;44.30;;;;;;5081749;28;20375;-61
2022/03/24 11:32:21;;;;;;;;;;;26.20;43.40;;;;;;5084825;28;19924;-61
2022/03/24 11:34:47;;;;;;;;;;;26.40;45.40;;;;;;5081372;28;19920;-60
2022/03/24 11:37:12;;;;;;;;;;;26.40;43.30;;;;;;5083710;28;19925;-61
2022/03/24 11:39:58;;;;;;;;;;;26.60;44.30;;;;;;5081959;28;19931;-61
2022/03/24 11:42:24;;;;;;;;;;;26.50;41.10;;;;;;5073217;28;19975;-61
2022/03/24 11:44:54;;;;;;;;;;;26.70;41.60;;;;;;5088040;28;19970;-60
2022/03/24 11:47:22;;;;;;;;;;;26.90;41.60;;;;;;5093216;28;20665;-61
2022/03/24 11:50:04;;;;;;;;;;;27.00;40.60;;;;;;5093309;28;19924;-60
2022/03/24 11:52:30;;;;;;;;;;;27.10;42.10;;;;;;5094276;28;19920;-60
2022/03/24 11:54:56;;;;;;;;;;;27.00;41.20;;;;;;5093290;28;20451;-61
2022/03/24 11:57:22;;;;;;;;;;;27.20;41.00;;;;;;5094046;28;19997;-60
2022/03/24 11:59:49;;;;;;;;;;;27.20;40.70;;;;;;5091819;28;19931;-61
2022/03/24 12:02:17;;;;;;;;;;;26.60;41.50;;;;;;5091419;28;19924;-61
2022/03/24 12:04:44;;;;;;;;;;;25.90;41.40;;;;;;5095611;28;19924;-61
2022/03/24 12:07:14;;;;;;;;;;;25.30;44.40;;;;;;5093659;28;20018;-60
2022/03/24 12:09:53;;;;;;;;;;;25.10;44.50;;;;;;5091904;28;20390;-61
2022/03/24 12:12:19;;;;;;;;;;;25.40;44.70;;;;;;5112023;28;19924;-61
2022/03/24 12:14:45;;;;;;;;;;;25.40;43.60;;;;;;5110323;28;19920;-61
2022/03/24 12:17:19;;;;;;;;;;;25.60;43.40;;;;;;5091026;28;19939;-60
2022/03/24 12:19:47;;;;;;;;;;;26.10;42.10;;;;;;5084049;28;20382;-61
2022/03/24 12:22:34;;;;;;;;;;;26.50;40.90;;;;;;5081361;28;19924;-61
2022/03/24 12:24:59;;;;;;;;;;;26.60;40.90;;;;;;5083990;28;19924;-61
2022/03/24 12:27:27;;;;;;;;;;;26.80;40.70;;;;;;5080693;28;20428;-61
2022/03/24 12:30:13;;;;;;;;;;;26.90;39.90;;;;;;5083996;28;19967;-61
2022/03/24 12:32:40;;;;;;;;;;;26.20;39.60;;;;;;5081391;28;19976;-61
2022/03/24 12:35:06;;;;;;;;;;;25.90;39.30;;;;;;5082240;28;19924;-61
2022/03/24 12:37:32;;;;;;;;;;;26.30;39.10;;;;;;5084341;28;19931;-61
2022/03/24 12:40:10;;;;;;;;;;;26.40;39.20;;;;;;5082018;28;19931;-61
2022/03/24 12:42:41;;;;;;;;;;;26.80;40.30;;;;;;5107707;28;20022;-61
2022/03/24 12:45:07;;;;;;;;;;;26.90;39.70;;;;;;5080802;28;19977;-61
2022/03/24 12:47:34;;;;;;;;;;;26.70;39.90;;;;;;5083861;28;19924;-61
2022/03/24 12:50:07;;;;;;;;;;;26.40;40.00;;;;;;5083047;28;19951;-61
2022/03/24 12:52:52;;;;;;;;;;;26.00;38.50;;;;;;5085456;28;19963;-61
2022/03/24 12:55:20;;;;;;;;;;;26.20;38.20;;;;;;5092981;28;19924;-61
2022/03/24 12:57:57;;;;;;;;;;;25.80;37.40;;;;;;5092226;28;19924;-61
2022/03/24 13:00:25;;;;;;;;;;;26.10;37.20;;;;;;5091365;28;19924;-61
2022/03/24 13:02:51;;;;;;;;;;;26.30;37.00;;;;;;5084101;28;19973;-61
2022/03/24 13:05:22;;;;;;;;;;;26.40;36.60;;;;;;5083154;28;19924;-61
2022/03/24 13:07:49;;;;;;;;;;;26.50;37.50;;;;;;5076006;28;20034;-62
2022/03/24 13:10:15;;;;;;;;;;;26.40;35.20;;;;;;5078244;28;19928;-61
2022/03/24 13:12:41;;;;;;;;;;;26.80;36.80;;;;;;5106787;28;19950;-61
2022/03/24 13:15:16;;;;;;;;;;;26.50;35.20;;;;;;5100779;28;19942;-61
2022/03/24 13:17:42;;;;;;;;;;;26.60;36.30;;;;;;5117569;28;19927;-62
2022/03/24 13:20:08;;;;;;;;;;;26.40;35.50;;;;;;5115903;28;19936;-62
2022/03/24 13:22:34;;;;;;;;;;;26.70;34.90;;;;;;5088282;28;20038;-61
2022/03/24 13:25:03;;;;;;;;;;;26.70;36.60;;;;;;5086180;28;20286;-61
2022/03/24 13:27:30;;;;;;;;;;;27.20;35.50;;;;;;5093502;28;19977;-62
2022/03/24 13:29:56;;;;;;;;;;;27.10;34.80;;;;;;5095549;28;19924;-61
2022/03/24 13:32:24;;;;;;;;;;;27.60;34.90;;;;;;5093553;28;19928;-62
2022/03/24 13:34:52;;;;;;;;;;;27.30;34.20;;;;;;5075681;28;19925;-62
2022/03/24 13:37:19;;;;;;;;;;;27.70;35.20;;;;;;5076473;28;19925;-62
2022/03/24 13:39:47;;;;;;;;;;;27.50;34.80;;;;;;5088360;28;19924;-62
2022/03/24 13:42:13;;;;;;;;;;;27.50;35.10;;;;;;5095588;28;19924;-62
2022/03/24 13:44:39;;;;;;;;;;;27.30;34.50;;;;;;5096879;28;19932;-62
2022/03/24 13:47:05;;;;;;;;;;;27.20;34.60;;;;;;5095526;28;19924;-62
2022/03/24 13:49:31;;;;;;;;;;;27.40;35.00;;;;;;5097072;28;19924;-62
2022/03/24 13:51:58;;;;;;;;;;;27.70;35.30;;;;;;5096931;28;19932;-62
2022/03/24 13:54:23;;;;;;;;;;;27.30;35.30;;;;;;5095722;28;19970;-62
2022/03/24 13:56:49;;;;;;;;;;;26.90;35.90;;;;;;5096454;28;19928;-61
2022/03/24 13:59:15;;;;;;;;;;;26.30;35.60;;;;;;5094616;28;19924;-62
2022/03/24 14:01:40;;;;;;;;;;;26.10;36.50;;;;;;5080633;28;20390;-61
2022/03/24 14:04:17;;;;;;;;;;;25.60;34.70;;;;;;5076163;28;19928;-61
2022/03/24 14:07:01;;;;;;;;;;;25.50;35.20;;;;;;5086767;28;19924;-62
2022/03/24 14:09:27;;;;;;;;;;;25.40;35.00;;;;;;5085611;28;19932;-62
2022/03/24 14:12:06;;;;;;;;;;;25.50;33.80;;;;;;5112273;28;19924;-62
2022/03/24 14:14:31;;;;;;;;;;;26.00;34.80;;;;;;5104823;28;19920;-62
2022/03/24 14:16:57;;;;;;;;;;;26.60;35.10;;;;;;5079000;28;19978;-62
2022/03/24 14:19:26;;;;;;;;;;;26.20;35.10;;;;;;5075799;28;19931;-62
2022/03/24 14:21:55;;;;;;;;;;;25.70;36.30;;;;;;5074705;28;19953;-62
2022/03/24 14:24:37;;;;;;;;;;;25.30;37.00;;;;;;5092688;28;20388;-62